createdAt,value
2022-10-14T00:01:51.944Z,94.2
2022-10-14T00:03:08.238Z,94.1
2022-10-14T00:04:24.549Z,94.6
2022-10-14T00:05:40.839Z,94.4
2022-10-14T00:06:57.135Z,94.5
2022-10-14T00:09:29.713Z,94.1
2022-10-14T00:10:46.015Z,94.3
2022-10-14T00:12:01.334Z,94.5
2022-10-14T00:13:17.620Z,94.3
2022-10-14T00:14:32.938Z,94.5
2022-10-14T00:15:49.226Z,93.9
2022-10-14T00:17:05.520Z,94
2022-10-14T00:18:21.818Z,94.2
2022-10-14T00:19:38.105Z,94.4
2022-10-14T00:20:54.405Z,94.3
2022-10-14T00:23:27.001Z,94
2022-10-14T00:24:42.307Z,93.8
2022-10-14T00:25:58.612Z,94.1
2022-10-14T00:27:14.899Z,93.8
2022-10-14T00:28:31.190Z,94.1
2022-10-14T00:29:47.492Z,94.1
2022-10-14T00:31:03.773Z,94.3
2022-10-14T00:32:20.063Z,93.7
2022-10-14T00:33:36.366Z,93.7
2022-10-14T00:36:08.964Z,94
2022-10-14T00:37:24.274Z,93.9
2022-10-14T00:38:40.564Z,94.2
2022-10-14T00:39:55.884Z,94.5
2022-10-14T00:41:12.172Z,94.4
2022-10-14T00:42:28.461Z,94.2
2022-10-14T00:43:44.762Z,94.1
2022-10-14T00:45:01.048Z,94.3
2022-10-14T00:46:17.336Z,94.5
2022-10-14T00:48:49.928Z,94.3
2022-10-14T00:50:06.224Z,94.5
2022-10-14T00:51:22.521Z,94.3
2022-10-14T00:52:38.822Z,94.6
2022-10-14T00:53:55.116Z,94.3
2022-10-14T00:55:11.418Z,94.6
2022-10-14T00:56:26.723Z,94.4
2022-10-14T00:57:43.012Z,94.5
2022-10-14T00:58:59.297Z,94.6
2022-10-14T01:01:31.885Z,94.7
2022-10-14T01:02:48.178Z,94.9
2022-10-14T01:04:04.482Z,94.5
2022-10-14T01:05:20.785Z,94.3
2022-10-14T01:06:37.068Z,94.5
2022-10-14T01:07:53.363Z,94.1
2022-10-14T01:09:09.661Z,94.6
2022-10-14T01:10:25.959Z,94.5
2022-10-14T01:11:42.239Z,94.6
2022-10-14T01:14:13.862Z,94.8
2022-10-14T01:15:30.149Z,94.6
2022-10-14T01:18:02.734Z,94.8
2022-10-14T01:19:19.022Z,94.8
2022-10-14T01:20:35.326Z,94.9
2022-10-14T01:21:51.611Z,94.9
2022-10-14T01:23:07.905Z,94.9
2022-10-14T01:24:24.215Z,94.9
2022-10-14T01:25:40.492Z,94.8
2022-10-14T01:26:56.800Z,94.7
2022-10-14T01:28:13.084Z,95
2022-10-14T01:29:29.375Z,95.1
2022-10-14T01:30:44.703Z,94.9
2022-10-14T01:32:00.985Z,94.9
2022-10-14T01:33:17.294Z,94.9
2022-10-14T01:34:33.569Z,95.2
2022-10-14T01:35:49.869Z,95.1
2022-10-14T01:37:06.165Z,95.3
2022-10-14T01:38:22.453Z,95.3
2022-10-14T01:39:38.766Z,95
2022-10-14T01:40:54.083Z,95
2022-10-14T01:42:10.361Z,95
2022-10-14T01:43:25.680Z,95.2
2022-10-14T01:44:41.977Z,95.1
2022-10-14T01:45:58.255Z,95.2
2022-10-14T01:48:30.848Z,95.4
2022-10-14T01:49:47.149Z,95.1
2022-10-14T01:51:03.433Z,95
2022-10-14T01:52:19.727Z,95.2
2022-10-14T01:53:36.035Z,95.2
2022-10-14T01:56:08.622Z,95.3
2022-10-14T01:57:24.910Z,95.1
2022-10-14T01:58:40.222Z,95.2
2022-10-14T01:59:55.542Z,95
2022-10-14T02:01:11.842Z,95
2022-10-14T02:02:28.118Z,95
2022-10-14T02:03:44.415Z,95
2022-10-14T02:05:00.719Z,95
2022-10-14T02:06:17.003Z,95.2
2022-10-14T02:07:33.314Z,95.2
2022-10-14T02:08:49.590Z,95
2022-10-14T02:10:05.889Z,95.3
2022-10-14T02:11:22.185Z,95.2
2022-10-14T02:12:37.507Z,95
2022-10-14T02:13:52.808Z,95.2
2022-10-14T02:15:09.107Z,95.2
2022-10-14T02:17:41.699Z,95.2
2022-10-14T02:18:57.988Z,95.2
2022-10-14T02:20:14.271Z,95.2
2022-10-14T02:21:30.570Z,95
2022-10-14T02:22:46.863Z,95.2
2022-10-14T02:24:03.169Z,95.3
2022-10-14T02:25:19.459Z,95.4
2022-10-14T02:26:35.748Z,95.4
2022-10-14T02:27:52.037Z,95.3
2022-10-14T02:29:08.328Z,95.3
2022-10-14T02:30:24.635Z,95.4
2022-10-14T02:31:39.932Z,95.4
2022-10-14T02:32:56.236Z,95.5
2022-10-14T02:34:12.526Z,95.4
2022-10-14T02:35:28.811Z,95.4
2022-10-14T02:36:45.113Z,95.4
2022-10-14T02:38:01.414Z,95.4
2022-10-14T02:39:17.705Z,95.4
2022-10-14T02:40:33.025Z,95.5
2022-10-14T02:41:48.335Z,95.5
2022-10-14T02:43:04.629Z,95.4
2022-10-14T02:44:20.921Z,95.4
2022-10-14T02:45:37.204Z,95.5
2022-10-14T02:46:53.500Z,95.4
2022-10-14T02:48:09.797Z,95.5
2022-10-14T02:49:26.102Z,95.4
2022-10-14T02:50:42.387Z,95.4
2022-10-14T02:51:58.672Z,95.3
2022-10-14T02:53:14.975Z,95.3
2022-10-14T02:55:47.562Z,95.5
2022-10-14T02:57:03.858Z,95.5
2022-10-14T02:58:20.145Z,95.4
2022-10-14T02:59:35.461Z,95.3
2022-10-14T03:00:51.766Z,95.5
2022-10-14T03:04:40.615Z,95.5
2022-10-14T03:05:55.946Z,95.5
2022-10-14T03:08:27.545Z,95.6
2022-10-14T03:09:43.835Z,95.7
2022-10-14T03:12:16.437Z,95.7
2022-10-14T03:13:32.715Z,95.5
2022-10-14T03:14:49.018Z,95.6
2022-10-14T03:16:05.312Z,95.5
2022-10-14T03:17:21.607Z,95.6
2022-10-14T03:18:37.887Z,95.7
2022-10-14T03:19:54.198Z,95.7
2022-10-14T03:21:10.487Z,95.8
2022-10-14T03:22:26.774Z,95.8
2022-10-14T03:23:43.064Z,95.6
2022-10-14T03:24:58.394Z,95.7
2022-10-14T03:26:14.688Z,95.8
2022-10-14T03:27:30.969Z,95.8
2022-10-14T03:28:47.262Z,95.7
2022-10-14T03:30:03.557Z,95.9
2022-10-14T03:31:19.846Z,95.7
2022-10-14T03:32:36.140Z,95.7
2022-10-14T03:33:52.446Z,95.8
2022-10-14T03:35:07.761Z,95.8
2022-10-14T03:36:24.044Z,95.6
2022-10-14T03:37:39.368Z,95.7
2022-10-14T03:38:55.649Z,95.6
2022-10-14T03:40:11.958Z,95.6
2022-10-14T03:41:28.238Z,95.7
2022-10-14T03:42:44.535Z,95.7
2022-10-14T03:44:00.838Z,95.5
2022-10-14T03:45:17.124Z,95.5
2022-10-14T03:46:33.412Z,95.5
2022-10-14T03:47:49.723Z,95.6
2022-10-14T03:50:22.312Z,95.6
2022-10-14T03:51:38.600Z,95.7
2022-10-14T03:52:54.890Z,95.7
2022-10-14T03:54:10.199Z,95.4
2022-10-14T03:55:26.485Z,95.6
2022-10-14T03:57:59.086Z,95.6
2022-10-14T03:59:15.381Z,95.8
2022-10-14T04:00:30.696Z,95.5
2022-10-14T04:01:46.991Z,95.4
2022-10-14T04:03:02.299Z,95.7
2022-10-14T04:05:34.884Z,95.5
2022-10-14T04:06:51.180Z,95.7
2022-10-14T04:08:07.471Z,95.7
2022-10-14T04:09:23.759Z,95.7
2022-10-14T04:11:56.363Z,95.9
2022-10-14T04:13:12.650Z,95.7
2022-10-14T04:14:28.944Z,95.9
2022-10-14T04:15:45.235Z,95.8
2022-10-14T04:17:01.525Z,95.8
2022-10-14T04:18:16.840Z,95.9
2022-10-14T04:19:32.151Z,95.7
2022-10-14T04:20:48.441Z,95.9
2022-10-14T04:22:04.736Z,95.9
2022-10-14T04:23:21.043Z,95.9
2022-10-14T04:24:37.320Z,95.9
2022-10-14T04:25:53.614Z,96
2022-10-14T04:28:26.221Z,96.2
2022-10-14T04:29:42.504Z,96.1
2022-10-14T04:30:58.800Z,96.2
2022-10-14T04:32:15.085Z,96.1
2022-10-14T04:33:31.388Z,96.1
2022-10-14T04:34:47.681Z,96.2
2022-10-14T04:37:19.279Z,96.3
2022-10-14T04:39:51.879Z,96.2
2022-10-14T04:41:07.184Z,96.2
2022-10-14T04:43:39.780Z,96.3
2022-10-14T04:44:56.070Z,96.4
2022-10-14T04:46:12.365Z,96.3
2022-10-14T04:47:28.661Z,96.3
2022-10-14T04:48:44.947Z,96.3
2022-10-14T04:50:01.257Z,96.3
2022-10-14T04:51:17.535Z,96.3
2022-10-14T04:52:33.827Z,96.2
2022-10-14T04:53:50.122Z,96.4
2022-10-14T04:55:06.416Z,96.3
2022-10-14T04:56:22.715Z,96.3
2022-10-14T04:57:38.036Z,96.4
2022-10-14T04:58:54.317Z,96.4
2022-10-14T05:00:10.620Z,96.4
2022-10-14T05:01:26.847Z,96.3
2022-10-14T05:02:43.150Z,96.2
2022-10-14T05:03:59.399Z,96.2
2022-10-14T05:06:31.893Z,96.4
2022-10-14T05:07:48.117Z,96.4
2022-10-14T05:09:04.369Z,96.4
2022-10-14T05:10:19.631Z,96.3
2022-10-14T05:11:34.895Z,96.3
2022-10-14T05:12:51.131Z,96.3
2022-10-14T05:14:07.374Z,96.1
2022-10-14T05:15:23.606Z,96
2022-10-14T05:16:39.852Z,96.1
2022-10-14T05:17:56.095Z,96
2022-10-14T05:19:12.327Z,96.1
2022-10-14T05:21:44.817Z,96.2
2022-10-14T05:23:01.052Z,96.4
2022-10-14T05:24:17.299Z,96.3
2022-10-14T05:25:33.532Z,96.3
2022-10-14T05:26:49.783Z,96.2
2022-10-14T05:28:06.011Z,96.3
2022-10-14T05:29:21.279Z,96.2
2022-10-14T05:30:37.499Z,96.4
2022-10-14T05:31:53.743Z,96.4
2022-10-14T05:33:09.999Z,96.4
2022-10-14T05:34:26.241Z,96.3
2022-10-14T05:35:42.462Z,96.3
2022-10-14T05:36:58.707Z,96.6
2022-10-14T05:38:13.979Z,96.6
2022-10-14T05:40:45.458Z,96.6
2022-10-14T05:42:01.704Z,96.9
2022-10-14T05:44:34.181Z,96.7
2022-10-14T05:45:50.430Z,97
2022-10-14T05:47:06.659Z,97.1
2022-10-14T05:48:22.910Z,97.1
2022-10-14T05:49:39.159Z,97
2022-10-14T05:50:55.384Z,97.1
2022-10-14T05:53:27.871Z,97.5
2022-10-14T05:56:00.354Z,97.9
2022-10-14T05:57:15.615Z,98.2
2022-10-14T05:58:31.855Z,98.2
2022-10-14T05:59:47.104Z,98.2
2022-10-14T06:01:03.348Z,98
2022-10-14T06:02:19.591Z,97.8
2022-10-14T06:03:35.822Z,97.8
2022-10-14T06:06:08.309Z,97.8
2022-10-14T06:07:24.554Z,97.8
2022-10-14T06:08:40.788Z,98
2022-10-14T06:09:57.034Z,97.7
2022-10-14T06:11:13.275Z,97.9
2022-10-14T06:12:29.510Z,97.9
2022-10-14T06:15:01.997Z,98.2
2022-10-14T06:16:17.256Z,98.2
2022-10-14T06:17:32.513Z,98.3
2022-10-14T06:18:48.751Z,98.2
2022-10-14T06:20:04.993Z,98.5
2022-10-14T06:21:21.229Z,98.5
2022-10-14T06:22:37.478Z,98.3
2022-10-14T06:23:53.705Z,98.3
2022-10-14T06:25:09.949Z,98.5
2022-10-14T06:26:26.189Z,98.8
2022-10-14T06:27:42.431Z,99
2022-10-14T06:28:58.674Z,99.2
2022-10-14T06:30:13.937Z,99.2
2022-10-14T06:31:30.165Z,99.3
2022-10-14T06:32:45.440Z,99.1
2022-10-14T06:34:01.663Z,99
2022-10-14T06:35:17.913Z,99
2022-10-14T06:36:34.156Z,98.9
2022-10-14T06:37:50.397Z,98.7
2022-10-14T06:40:22.874Z,98.6
2022-10-14T06:41:39.119Z,98.5
2022-10-14T06:42:55.353Z,98.5
2022-10-14T06:46:44.075Z,98.4
2022-10-14T06:47:59.341Z,98.2
2022-10-14T06:49:15.567Z,98
2022-10-14T06:50:30.824Z,98
2022-10-14T06:53:03.319Z,97.8
2022-10-14T06:54:19.551Z,97.7
2022-10-14T06:55:35.799Z,97.5
2022-10-14T06:56:52.037Z,97.3
2022-10-14T06:58:08.266Z,96.9
2022-10-14T06:59:24.523Z,96.6
2022-10-14T07:00:40.741Z,96.3
2022-10-14T07:01:57.000Z,96.2
2022-10-14T07:03:13.240Z,96.1
2022-10-14T07:04:29.461Z,95.8
2022-10-14T07:05:45.717Z,95.9
2022-10-14T07:07:00.964Z,95.6
2022-10-14T07:08:17.219Z,95.4
2022-10-14T07:09:33.450Z,95.2
2022-10-14T07:10:49.683Z,95
2022-10-14T07:12:05.938Z,94.7
2022-10-14T07:13:22.157Z,94.5
2022-10-14T07:14:38.403Z,94.4
2022-10-14T07:15:53.672Z,94.2
2022-10-14T07:17:08.935Z,94.1
2022-10-14T07:18:25.159Z,93.8
2022-10-14T07:19:41.398Z,93.5
2022-10-14T07:20:57.643Z,93.3
2022-10-14T07:22:13.878Z,93.2
2022-10-14T07:23:30.132Z,92.9
2022-10-14T07:24:46.376Z,92.8
2022-10-14T07:26:02.611Z,92.7
2022-10-14T07:27:18.838Z,92.4
2022-10-14T07:28:35.090Z,92.4
2022-10-14T07:29:50.344Z,91.9
2022-10-14T07:31:05.614Z,91.9
2022-10-14T07:32:21.854Z,91.9
2022-10-14T07:33:38.076Z,91.6
2022-10-14T07:34:54.321Z,91.2
2022-10-14T07:36:10.566Z,91
2022-10-14T07:37:26.795Z,90.8
2022-10-14T07:38:43.041Z,90.9
2022-10-14T07:39:59.278Z,90.9
2022-10-14T07:41:15.522Z,90.7
2022-10-14T07:42:31.759Z,90.5
2022-10-14T07:43:48.013Z,90.2
2022-10-14T07:45:04.256Z,90.2
2022-10-14T07:46:20.489Z,90
2022-10-14T07:47:36.723Z,90.1
2022-10-14T07:48:51.978Z,89.6
2022-10-14T07:50:08.223Z,89.6
2022-10-14T07:51:24.469Z,89.5
2022-10-14T07:52:40.708Z,89.2
2022-10-14T07:53:56.938Z,89
2022-10-14T07:55:13.185Z,88.7
2022-10-14T07:56:29.413Z,88.6
2022-10-14T07:57:45.654Z,88.6
2022-10-14T07:59:01.904Z,88.5
2022-10-14T08:00:18.132Z,88.4
2022-10-14T08:01:34.372Z,88.2
2022-10-14T08:02:50.609Z,88.3
2022-10-14T08:04:06.854Z,87.9
2022-10-14T08:05:22.106Z,87.7
2022-10-14T08:06:38.352Z,87.7
2022-10-14T08:09:10.841Z,87.5
2022-10-14T08:10:27.078Z,87.1
2022-10-14T08:11:43.306Z,87.1
2022-10-14T08:12:59.544Z,86.8
2022-10-14T08:14:15.792Z,86.5
2022-10-14T08:15:32.039Z,86.1
2022-10-14T08:16:48.272Z,84.9
2022-10-14T08:18:04.520Z,84.9
2022-10-14T08:19:20.747Z,84.9
2022-10-14T08:20:36.983Z,85.3
2022-10-14T08:21:52.237Z,84.7
2022-10-14T08:23:08.481Z,84.9
2022-10-14T08:24:24.713Z,84.6
2022-10-14T08:25:40.964Z,84.6
2022-10-14T08:26:57.197Z,84.7
2022-10-14T08:28:13.447Z,84.4
2022-10-14T08:29:29.687Z,84
2022-10-14T08:32:02.163Z,84.3
2022-10-14T08:33:18.398Z,83.9
2022-10-14T08:34:34.632Z,83.6
2022-10-14T08:35:50.884Z,83.9
2022-10-14T08:37:07.110Z,84
2022-10-14T08:39:39.604Z,83.3
2022-10-14T08:40:54.860Z,83.8
2022-10-14T08:42:11.097Z,83.1
2022-10-14T08:43:27.339Z,83.3
2022-10-14T08:44:43.579Z,83.8
2022-10-14T08:45:59.820Z,83.5
2022-10-14T08:47:16.050Z,83.5
2022-10-14T08:48:32.296Z,83.8
2022-10-14T08:49:48.537Z,83.1
2022-10-14T08:51:04.770Z,83
2022-10-14T08:52:21.003Z,83.3
2022-10-14T08:53:37.246Z,83.3
2022-10-14T08:54:53.486Z,82.8
2022-10-14T08:56:08.754Z,83
2022-10-14T08:57:24.990Z,82.9
2022-10-14T08:58:41.221Z,82.7
2022-10-14T08:59:57.470Z,82.9
2022-10-14T09:01:13.704Z,82.7
2022-10-14T09:02:29.945Z,82.4
2022-10-14T09:03:46.196Z,81.9
2022-10-14T09:05:02.420Z,82.2
2022-10-14T09:06:18.667Z,82
2022-10-14T09:07:34.898Z,82
2022-10-14T09:08:51.159Z,82.3
2022-10-14T09:10:07.389Z,82.1
2022-10-14T09:11:23.638Z,82
2022-10-14T09:12:38.886Z,82.2
2022-10-14T09:13:55.133Z,82.4
2022-10-14T09:15:11.374Z,82.3
2022-10-14T09:16:27.597Z,81.8
2022-10-14T09:17:43.843Z,81.7
2022-10-14T09:19:00.079Z,81.5
2022-10-14T09:20:16.321Z,81.8
2022-10-14T09:21:32.557Z,81.5
2022-10-14T09:22:48.812Z,81.8
2022-10-14T09:24:05.041Z,82.2
2022-10-14T09:25:21.274Z,82.2
2022-10-14T09:26:37.512Z,81.7
2022-10-14T09:27:53.753Z,81.5
2022-10-14T09:29:10.008Z,81.6
2022-10-14T09:30:25.262Z,81.8
2022-10-14T09:31:41.491Z,81.7
2022-10-14T09:32:57.743Z,82
2022-10-14T09:34:13.964Z,82.1
2022-10-14T09:35:30.204Z,82.1
2022-10-14T09:38:02.694Z,81.9
2022-10-14T09:39:18.943Z,82.4
2022-10-14T09:40:35.174Z,82
2022-10-14T09:41:51.419Z,81.3
2022-10-14T09:43:07.646Z,81.4
2022-10-14T09:44:23.896Z,81.9
2022-10-14T09:45:40.122Z,81.6
2022-10-14T09:46:55.389Z,81.8
2022-10-14T09:48:11.632Z,81.3
2022-10-14T09:49:27.863Z,81.3
2022-10-14T09:50:44.101Z,81.5
2022-10-14T09:52:00.352Z,80.8
2022-10-14T09:53:16.588Z,81.1
2022-10-14T09:54:32.827Z,80.8
2022-10-14T09:55:49.072Z,80.4
2022-10-14T09:57:05.300Z,80.8
2022-10-14T09:58:21.544Z,79.7
2022-10-14T09:59:37.788Z,80
2022-10-14T10:00:54.021Z,80.2
2022-10-14T10:02:10.268Z,79.8
2022-10-14T10:03:25.508Z,79.5
2022-10-14T10:04:41.770Z,79
2022-10-14T10:05:57.988Z,78.7
2022-10-14T10:07:14.237Z,78.3
2022-10-14T10:08:30.472Z,78.4
2022-10-14T10:11:02.955Z,78.3
2022-10-14T10:12:19.206Z,78.1
2022-10-14T10:13:35.441Z,77.7
2022-10-14T10:14:51.686Z,77.8
2022-10-14T10:16:07.911Z,77.8
2022-10-14T10:18:40.393Z,77.8
2022-10-14T10:19:56.633Z,77.4
2022-10-14T10:21:11.897Z,77
2022-10-14T10:22:28.137Z,76.6
2022-10-14T10:23:44.364Z,76.4
2022-10-14T10:26:16.843Z,75.1
2022-10-14T10:27:32.101Z,75.5
2022-10-14T10:28:47.372Z,75.7
2022-10-14T10:30:03.599Z,75.5
2022-10-14T10:31:19.850Z,75.2
2022-10-14T10:32:36.085Z,76.1
2022-10-14T10:33:52.326Z,74.5
2022-10-14T10:35:08.571Z,74.1
2022-10-14T10:36:24.813Z,73.7
2022-10-14T10:37:41.043Z,73.2
2022-10-14T10:38:57.290Z,72.9
2022-10-14T10:41:29.762Z,72.7
2022-10-14T10:42:46.005Z,72.9
2022-10-14T10:44:02.249Z,73.4
2022-10-14T10:45:18.474Z,74
2022-10-14T10:46:33.739Z,73.6
2022-10-14T10:47:49.986Z,72.4
2022-10-14T10:50:22.455Z,72.1
2022-10-14T10:51:37.730Z,71.4
2022-10-14T10:52:52.969Z,70.7
2022-10-14T10:54:09.210Z,70.9
2022-10-14T10:57:57.944Z,71
2022-10-14T10:59:14.170Z,70.8
2022-10-14T11:00:30.423Z,70.8
2022-10-14T11:01:46.644Z,70.7
2022-10-14T11:04:19.134Z,70.4
2022-10-14T11:05:35.370Z,69.7
2022-10-14T11:06:51.610Z,69.3
2022-10-14T11:08:07.848Z,69.2
2022-10-14T11:09:23.115Z,69.4
2022-10-14T11:10:39.346Z,68.8
2022-10-14T11:11:55.596Z,68.8
2022-10-14T11:13:11.826Z,68.8
2022-10-14T11:14:28.068Z,69
2022-10-14T11:15:44.302Z,68.7
2022-10-14T11:17:00.549Z,69.5
2022-10-14T11:19:33.000Z,67.8
2022-10-14T11:22:05.504Z,66.8
2022-10-14T11:23:21.748Z,66.6
2022-10-14T11:24:37.977Z,67.1
2022-10-14T11:25:54.230Z,67.2
2022-10-14T11:27:09.486Z,66.7
2022-10-14T11:28:25.719Z,67.6
2022-10-14T11:29:41.952Z,67.3
2022-10-14T11:30:58.199Z,67.4
2022-10-14T11:32:14.432Z,68
2022-10-14T11:33:30.679Z,68.5
2022-10-14T11:34:46.921Z,68
2022-10-14T11:36:03.166Z,67.7
2022-10-14T11:37:19.388Z,67.2
2022-10-14T11:38:35.640Z,67.3
2022-10-14T11:39:51.886Z,66.8
2022-10-14T11:42:24.357Z,66.3
2022-10-14T11:43:39.620Z,66.8
2022-10-14T11:44:55.846Z,66.6
2022-10-14T11:46:12.090Z,66.7
2022-10-14T11:47:28.334Z,67.4
2022-10-14T11:48:44.563Z,66.6
2022-10-14T11:49:59.842Z,66.9
2022-10-14T11:51:15.098Z,66.6
2022-10-14T11:52:31.325Z,66.9
2022-10-14T11:53:47.566Z,66.7
2022-10-14T11:55:03.808Z,66.4
2022-10-14T11:56:20.043Z,66.6
2022-10-14T11:57:36.294Z,66.7
2022-10-14T11:58:52.527Z,66.8
2022-10-14T12:01:24.998Z,66.6
2022-10-14T12:02:41.239Z,66.7
2022-10-14T12:03:57.477Z,66.1
2022-10-14T12:05:13.717Z,66.6
2022-10-14T12:06:29.956Z,66.3
2022-10-14T12:07:45.220Z,66.1
2022-10-14T12:09:01.461Z,66.5
2022-10-14T12:10:17.692Z,66.3
2022-10-14T12:11:33.941Z,66.4
2022-10-14T12:12:50.177Z,66.7
2022-10-14T12:14:06.429Z,66.2
2022-10-14T12:15:22.668Z,66.2
2022-10-14T12:16:38.901Z,66.2
2022-10-14T12:17:54.158Z,67
2022-10-14T12:19:10.391Z,67.1
2022-10-14T12:20:25.659Z,66.5
2022-10-14T12:21:41.890Z,66.9
2022-10-14T12:22:58.125Z,66.9
2022-10-14T12:24:14.372Z,67.2
2022-10-14T12:25:30.618Z,66.7
2022-10-14T12:28:03.088Z,67
2022-10-14T12:29:19.337Z,67.6
2022-10-14T12:30:35.579Z,67.3
2022-10-14T12:31:51.818Z,67.4
2022-10-14T12:33:08.057Z,67.1
2022-10-14T12:34:24.303Z,67.4
2022-10-14T12:35:40.534Z,67.2
2022-10-14T12:36:55.795Z,67.2
2022-10-14T12:38:12.025Z,67.1
2022-10-14T12:39:28.273Z,67.7
2022-10-14T12:40:44.511Z,68
2022-10-14T12:42:00.752Z,67.3
2022-10-14T12:43:16.982Z,67.6
2022-10-14T12:44:33.221Z,68.1
2022-10-14T12:45:49.469Z,68.8
2022-10-14T12:47:05.709Z,68
2022-10-14T12:48:21.949Z,68
2022-10-14T12:49:38.187Z,67.2
2022-10-14T12:52:10.661Z,67.2
2022-10-14T12:53:25.921Z,67.3
2022-10-14T12:54:42.170Z,66.2
2022-10-14T12:55:58.405Z,66.3
2022-10-14T12:58:30.890Z,67.1
2022-10-14T12:59:47.128Z,65.9
2022-10-14T13:01:03.368Z,66.5
2022-10-14T13:02:19.598Z,66.8
2022-10-14T13:03:35.829Z,66.7
2022-10-14T13:04:52.089Z,66.9
2022-10-14T13:06:08.314Z,67.3
2022-10-14T13:07:24.553Z,66.6
2022-10-14T13:08:40.801Z,66.5
2022-10-14T13:09:57.027Z,66.1
2022-10-14T13:11:12.295Z,66.5
2022-10-14T13:13:44.770Z,66.4
2022-10-14T13:15:00.049Z,65.7
2022-10-14T13:16:15.291Z,66.1
2022-10-14T13:17:31.525Z,65.9
2022-10-14T13:20:04.016Z,66.3
2022-10-14T13:21:20.263Z,66.6
2022-10-14T13:22:36.487Z,66.8
2022-10-14T13:23:52.729Z,66.9
2022-10-14T13:26:25.217Z,66.4
2022-10-14T13:28:57.699Z,66.3
2022-10-14T13:30:13.928Z,66.5
2022-10-14T13:31:30.175Z,66.5
2022-10-14T13:32:46.410Z,66.5
2022-10-14T13:34:01.677Z,66.1
2022-10-14T13:36:34.165Z,66.6
2022-10-14T13:37:49.410Z,65.8
2022-10-14T13:39:05.647Z,66.1
2022-10-14T13:40:21.890Z,65.9
2022-10-14T13:41:38.123Z,66.1
2022-10-14T13:42:54.370Z,66.1
2022-10-14T13:44:10.604Z,66.3
2022-10-14T13:45:26.849Z,66.2
2022-10-14T13:46:43.094Z,65.8
2022-10-14T13:47:59.333Z,65.2
2022-10-14T13:49:14.600Z,65
2022-10-14T13:50:29.839Z,65.7
2022-10-14T13:51:46.078Z,65.7
2022-10-14T13:53:02.321Z,65.9
2022-10-14T13:54:18.569Z,65.6
2022-10-14T13:55:34.800Z,65.9
2022-10-14T13:56:51.051Z,66
2022-10-14T13:59:23.514Z,66.4
2022-10-14T14:00:39.758Z,66.7
2022-10-14T14:01:55.997Z,67.1
2022-10-14T14:03:12.238Z,67.4
2022-10-14T14:04:28.477Z,66.7
2022-10-14T14:07:00.957Z,67.4
2022-10-14T14:08:16.211Z,66.9
2022-10-14T14:09:31.474Z,66.6
2022-10-14T14:10:47.725Z,67.2
2022-10-14T14:12:03.951Z,67.7
2022-10-14T14:14:36.446Z,67.2
2022-10-14T14:15:52.687Z,67.4
2022-10-14T14:17:08.907Z,67.3
2022-10-14T14:18:25.156Z,67.1
2022-10-14T14:19:41.385Z,66.7
2022-10-14T14:20:57.643Z,66.9
2022-10-14T14:22:13.864Z,67.1
2022-10-14T14:23:30.112Z,66.9
2022-10-14T14:24:46.359Z,67.2
2022-10-14T14:26:01.610Z,67.1
2022-10-14T14:27:17.847Z,67.1
2022-10-14T14:29:50.328Z,66.6
2022-10-14T14:31:06.574Z,66.8
2022-10-14T14:33:39.056Z,66.8
2022-10-14T14:34:55.281Z,66.9
2022-10-14T14:37:27.765Z,67.6
2022-10-14T14:38:44.015Z,67.7
2022-10-14T14:40:00.244Z,67.8
2022-10-14T14:41:16.482Z,68.3
2022-10-14T14:42:32.736Z,68.6
2022-10-14T14:43:47.981Z,69
2022-10-14T14:45:04.231Z,68.9
2022-10-14T14:46:20.452Z,69.4
2022-10-14T14:47:36.704Z,69.1
2022-10-14T14:48:52.940Z,68.9
2022-10-14T14:50:09.189Z,69.2
2022-10-14T14:51:25.419Z,69.3
2022-10-14T14:52:41.651Z,69.3
2022-10-14T14:53:57.903Z,69.2
2022-10-14T14:55:14.149Z,69.5
2022-10-14T14:56:30.380Z,69.3
2022-10-14T14:57:46.620Z,69.6
2022-10-14T14:59:02.849Z,69.7
2022-10-14T15:00:18.123Z,69.6
2022-10-14T15:01:34.356Z,69.8
2022-10-14T15:02:49.617Z,70
2022-10-14T15:04:05.848Z,70.3
2022-10-14T15:05:22.086Z,70.3
2022-10-14T15:06:38.331Z,70.7
2022-10-14T15:07:54.573Z,70.9
2022-10-14T15:09:10.817Z,71.1
2022-10-14T15:10:27.061Z,70.9
2022-10-14T15:11:43.294Z,70.9
2022-10-14T15:12:59.533Z,71
2022-10-14T15:15:32.005Z,71.5
2022-10-14T15:16:48.240Z,71.5
2022-10-14T15:18:04.500Z,71.5
2022-10-14T15:19:19.740Z,71.5
2022-10-14T15:20:35.992Z,71.6
2022-10-14T15:21:52.234Z,71.6
2022-10-14T15:23:08.469Z,71.6
2022-10-14T15:24:24.712Z,71.9
2022-10-14T15:25:40.951Z,72
2022-10-14T15:26:57.189Z,72
2022-10-14T15:28:12.435Z,72.2
2022-10-14T15:29:27.703Z,72.4
2022-10-14T15:30:43.929Z,72.5
2022-10-14T15:32:00.180Z,72.7
2022-10-14T15:33:16.410Z,72.7
2022-10-14T15:34:32.660Z,72.6
2022-10-14T15:35:48.906Z,72.7
2022-10-14T15:37:05.137Z,72.7
2022-10-14T15:38:21.380Z,72.8
2022-10-14T15:40:53.846Z,73.1
2022-10-14T15:42:10.086Z,73.2
2022-10-14T15:43:26.337Z,73.4
2022-10-14T15:44:42.578Z,73.5
2022-10-14T15:45:58.810Z,73.6
2022-10-14T15:47:14.063Z,73.5
2022-10-14T15:48:30.311Z,73.6
2022-10-14T15:49:46.559Z,73.5
2022-10-14T15:51:02.800Z,73.6
2022-10-14T15:53:35.274Z,73.6
2022-10-14T15:54:51.508Z,73.7
2022-10-14T15:56:07.744Z,73.9
2022-10-14T15:57:23.996Z,73.9
2022-10-14T15:58:40.235Z,73.8
2022-10-14T16:02:28.950Z,73.9
2022-10-14T16:03:44.215Z,74
2022-10-14T16:05:00.440Z,73.9
2022-10-14T16:06:15.700Z,74.1
2022-10-14T16:08:48.189Z,74.4
2022-10-14T16:10:04.418Z,74.3
2022-10-14T16:11:20.662Z,74.5
2022-10-14T16:12:36.900Z,74.5
2022-10-14T16:13:53.147Z,74.7
2022-10-14T16:15:09.386Z,74.6
2022-10-14T16:16:25.615Z,74.7
2022-10-14T16:17:41.864Z,74.7
2022-10-14T16:18:58.101Z,74.9
2022-10-14T16:20:14.338Z,75
2022-10-14T16:21:30.580Z,75.3
2022-10-14T16:22:45.824Z,75.3
2022-10-14T16:24:02.078Z,75.4
2022-10-14T16:27:50.788Z,76
2022-10-14T16:31:38.531Z,76.5
2022-10-14T16:32:53.786Z,76.6
2022-10-14T16:34:09.050Z,76.8
2022-10-14T16:35:25.285Z,77.1
2022-10-14T16:36:41.521Z,77.3
2022-10-14T16:37:57.763Z,77.5
2022-10-14T16:40:30.247Z,77.6
2022-10-14T16:41:46.494Z,78
2022-10-14T16:43:02.733Z,78
2022-10-14T16:44:18.971Z,78.5
2022-10-14T16:46:51.442Z,78.7
2022-10-14T16:48:07.688Z,78.8
2022-10-14T16:49:23.932Z,78.8
2022-10-14T16:50:39.187Z,78.9
2022-10-14T16:51:55.469Z,78.9
2022-10-14T16:53:11.761Z,79.1
2022-10-14T16:54:28.059Z,79.2
2022-10-14T16:55:44.354Z,79.2
2022-10-14T16:57:00.645Z,79.4
2022-10-14T16:58:16.949Z,79.6
2022-10-14T16:59:33.243Z,79.7
2022-10-14T17:00:49.532Z,79.7
2022-10-14T17:02:05.830Z,79.8
2022-10-14T17:03:22.114Z,79.8
2022-10-14T17:05:54.700Z,79.7
2022-10-14T17:07:10.013Z,79.9
2022-10-14T17:08:26.302Z,80.3
2022-10-14T17:09:42.599Z,80.5
2022-10-14T17:10:58.905Z,80.7
2022-10-14T17:12:15.190Z,80.7
2022-10-14T17:13:30.512Z,80.6
2022-10-14T17:14:45.806Z,80.7
2022-10-14T17:16:02.112Z,80.7
2022-10-14T17:17:18.406Z,80.8
2022-10-14T17:18:34.700Z,80.8
2022-10-14T17:19:50.987Z,80.8
2022-10-14T17:21:07.277Z,80.8
2022-10-14T17:22:23.587Z,81
2022-10-14T17:23:39.868Z,80.8
2022-10-14T17:24:56.166Z,80.7
2022-10-14T17:26:11.489Z,80.8
2022-10-14T17:27:26.786Z,80.8
2022-10-14T17:28:42.108Z,80.7
2022-10-14T17:29:58.401Z,80.7
2022-10-14T17:31:14.683Z,80.5
2022-10-14T17:32:30.983Z,80.5
2022-10-14T17:33:47.269Z,80.8
2022-10-14T17:35:03.566Z,80.5
2022-10-14T17:36:19.859Z,80.8
2022-10-14T17:37:36.155Z,80.6
2022-10-14T17:38:52.459Z,80.7
2022-10-14T17:40:08.751Z,80.7
2022-10-14T17:41:25.047Z,80.6
2022-10-14T17:42:41.343Z,80.5
2022-10-14T17:43:57.621Z,80.8
2022-10-14T17:45:12.943Z,80.7
2022-10-14T17:47:45.515Z,80.7
2022-10-14T17:49:01.813Z,80.7
2022-10-14T17:50:18.106Z,81
2022-10-14T17:51:34.404Z,80.9
2022-10-14T17:52:50.688Z,81.2
2022-10-14T17:54:06.998Z,81.1
2022-10-14T17:56:39.570Z,80.8
2022-10-14T17:57:55.863Z,81
2022-10-14T17:59:12.166Z,80.8
2022-10-14T18:00:28.466Z,80.8
2022-10-14T18:01:44.753Z,80.7
2022-10-14T18:03:00.072Z,80.8
2022-10-14T18:04:16.348Z,80.7
2022-10-14T18:05:32.647Z,80.7
2022-10-14T18:06:48.945Z,80.8
2022-10-14T18:08:05.235Z,80.7
2022-10-14T18:10:37.825Z,80.5
2022-10-14T18:11:53.149Z,80.5
2022-10-14T18:13:08.449Z,80.3
2022-10-14T18:14:24.751Z,80.3
2022-10-14T18:15:41.038Z,80.2
2022-10-14T18:16:57.329Z,80.2
2022-10-14T18:18:13.631Z,80.2
2022-10-14T18:19:29.924Z,80.3
2022-10-14T18:20:46.200Z,80.2
2022-10-14T18:22:02.515Z,80.3
2022-10-14T18:23:18.807Z,80.3
2022-10-14T18:24:35.095Z,80.3
2022-10-14T18:25:50.398Z,80.2
2022-10-14T18:27:06.702Z,80.3
2022-10-14T18:28:22.001Z,80.3
2022-10-14T18:29:38.311Z,80.5
2022-10-14T18:30:54.594Z,80.5
2022-10-14T18:33:27.188Z,80.7
2022-10-14T18:34:43.489Z,80.5
2022-10-14T18:35:59.776Z,80.5
2022-10-14T18:37:16.070Z,80.7
2022-10-14T18:38:32.350Z,80.6
2022-10-14T18:39:48.644Z,80.6
2022-10-14T18:41:04.942Z,80.7
2022-10-14T18:42:21.248Z,80.7
2022-10-14T18:43:37.528Z,80.5
2022-10-14T18:44:52.837Z,80.5